Time;durP1;ratioP1;P1;durP2;ratioP2;P2;SDS_P1;SDS_P2;PMS_P1;PMS_P2;Temp;Humidity;BMP_temperature;BMP_pressure;BME280_temperature;BME280_humidity;BME280_pressure;Samples;Min_cycle;Max_cycle;Signal;HPM_P1;HPM_P2
2023/03/08 00:00:15;;;;;;;;;;;-0.40;99.90;;;;;;4980471;28;20046;-73
2023/03/08 00:02:41;;;;;;;4.38;3.80;;;-0.40;99.90;;;;;;4982764;28;19925;-73
2023/03/08 00:05:08;;;;;;;6.18;3.85;;;-0.40;99.90;;;;;;4975655;28;20081;-73
2023/03/08 00:07:33;;;;;;;6.97;4.05;;;-0.40;99.90;;;;;;4972111;28;20117;-73
2023/03/08 00:09:59;;;;;;;5.93;4.28;;;-0.40;99.90;;;;;;4969867;28;20561;-73
2023/03/08 00:12:25;;;;;;;6.35;4.85;;;-0.40;99.90;;;;;;4974555;28;20038;-73
2023/03/08 00:14:51;;;;;;;6.63;4.78;;;-0.40;99.90;;;;;;4974348;28;20739;-73
2023/03/08 00:17:17;;;;;;;4.95;4.32;;;-0.30;99.90;;;;;;4969181;28;20066;-73
2023/03/08 00:19:43;;;;;;;4.88;4.38;;;-0.40;99.90;;;;;;4979708;28;20046;-73
2023/03/08 00:22:09;;;;;;;6.80;4.55;;;-0.40;99.90;;;;;;4994336;28;20129;-73
2023/03/08 00:24:35;;;;;;;5.32;4.50;;;-0.40;99.90;;;;;;4974478;28;20651;-73
2023/03/08 00:27:00;;;;;;;8.02;5.50;;;-0.40;99.90;;;;;;4991041;28;20150;-73
2023/03/08 00:29:26;;;;;;;7.50;5.35;;;-0.40;99.90;;;;;;4971053;28;20054;-73
2023/03/08 00:31:52;;;;;;;5.97;4.80;;;-0.40;99.90;;;;;;4973222;28;20054;-73
2023/03/08 00:34:18;;;;;;;6.75;5.30;;;-0.40;99.90;;;;;;4971432;28;20141;-73
2023/03/08 00:36:44;;;;;;;8.07;5.22;;;-0.50;99.90;;;;;;4987102;28;20518;-73
2023/03/08 00:39:11;;;;;;;5.25;4.50;;;-0.50;99.90;;;;;;4990016;28;20065;-73
2023/03/08 00:41:37;;;;;;;11.10;5.25;;;-0.50;99.90;;;;;;4976417;28;20038;-73
2023/03/08 00:44:03;;;;;;;5.25;4.75;;;-0.50;99.90;;;;;;4976194;28;20054;-73
2023/03/08 00:46:29;;;;;;;5.65;5.15;;;-0.50;99.90;;;;;;4983905;28;20065;-73
2023/03/08 00:48:54;;;;;;;5.93;5.15;;;-0.50;99.90;;;;;;4973603;28;20129;-73
2023/03/08 00:51:21;;;;;;;5.78;5.05;;;-0.50;99.90;;;;;;4980745;28;20052;-73
2023/03/08 00:53:47;;;;;;;5.60;4.35;;;-0.50;99.90;;;;;;4982849;28;20046;-73
2023/03/08 00:56:13;;;;;;;4.80;4.28;;;-0.60;99.90;;;;;;4983348;28;20042;-73
2023/03/08 00:58:40;;;;;;;7.78;5.05;;;-0.60;99.90;;;;;;4977501;28;20054;-73
2023/03/08 01:01:10;;;;;;;5.20;4.70;;;-0.60;99.90;;;;;;4974012;28;20050;-73
2023/03/08 01:03:36;;;;;;;7.05;4.78;;;-0.60;99.90;;;;;;4986189;28;20042;-73
2023/03/08 01:06:08;;;;;;;7.63;4.50;;;-0.60;99.90;;;;;;4974194;28;20053;-73
2023/03/08 01:08:34;;;;;;;6.03;4.93;;;-0.60;99.90;;;;;;4984796;28;20051;-73
2023/03/08 01:11:00;;;;;;;5.72;4.20;;;-0.60;99.90;;;;;;4975630;28;20531;-73
2023/03/08 01:13:29;;;;;;;5.60;5.05;;;-0.60;99.90;;;;;;4974790;28;20053;-73
2023/03/08 01:15:56;;;;;;;5.72;4.53;;;-0.60;99.90;;;;;;4977768;28;20046;-73
2023/03/08 01:18:22;;;;;;;6.05;5.10;;;-0.70;99.90;;;;;;4974723;28;20054;-73
2023/03/08 01:20:55;;;;;;;6.55;5.80;;;-0.70;99.90;;;;;;4964028;28;20034;-74
2023/03/08 01:23:21;;;;;;;5.57;5.07;;;-0.60;99.90;;;;;;4967405;28;20074;-73
2023/03/08 01:25:47;;;;;;;6.47;5.30;;;-0.70;99.90;;;;;;4967818;28;20701;-74
2023/03/08 01:28:12;;;;;;;6.20;5.47;;;-0.70;99.90;;;;;;4968006;28;20047;-73
2023/03/08 01:30:38;;;;;;;12.15;5.40;;;-0.70;99.90;;;;;;4970218;28;20407;-73
2023/03/08 01:33:03;;;;;;;9.73;6.95;;;-0.70;99.90;;;;;;4971583;28;20737;-73
2023/03/08 01:35:29;;;;;;;7.28;5.45;;;-0.70;99.90;;;;;;4972424;28;20742;-73
2023/03/08 01:37:55;;;;;;;10.25;6.35;;;-0.70;99.90;;;;;;4970390;28;20519;-74
2023/03/08 01:40:21;;;;;;;8.05;6.53;;;-0.70;99.90;;;;;;4971984;28;20051;-74
2023/03/08 01:42:47;;;;;;;6.60;5.97;;;-0.70;99.90;;;;;;4964643;28;20038;-74
2023/03/08 01:45:51;;;;;;;10.73;8.18;;;-0.80;99.90;;;;;;4969407;28;20038;-73
2023/03/08 01:48:17;;;;;;;10.45;6.80;;;-0.70;99.90;;;;;;4962092;28;20046;-73
2023/03/08 01:50:45;;;;;;;7.63;6.13;;;-0.80;99.90;;;;;;4968201;28;20136;-74
2023/03/08 01:53:11;;;;;;;13.60;7.47;;;-0.80;99.90;;;;;;4971275;28;20126;-73
2023/03/08 01:55:37;;;;;;;7.25;6.55;;;-0.80;99.90;;;;;;4965079;28;20128;-73
2023/03/08 01:58:03;;;;;;;6.93;6.28;;;-0.80;99.90;;;;;;4971841;28;20124;-74
2023/03/08 02:00:28;;;;;;;11.55;7.88;;;-0.80;99.90;;;;;;4973090;28;20093;-73
2023/03/08 02:03:00;;;;;;;8.23;6.97;;;-0.80;99.90;;;;;;4971886;28;20504;-73
2023/03/08 02:05:28;;;;;;;8.93;6.15;;;-0.80;99.90;;;;;;4969703;28;20053;-74
2023/03/08 02:07:53;;;;;;;8.55;6.93;;;-0.80;99.90;;;;;;4971542;28;20054;-73
2023/03/08 02:10:20;;;;;;;13.63;7.10;;;-0.80;99.90;;;;;;4969325;28;20055;-73
2023/03/08 02:12:47;;;;;;;9.43;7.93;;;-0.90;99.90;;;;;;4970270;28;20055;-73
2023/03/08 02:15:16;;;;;;;9.93;7.35;;;-0.90;99.90;;;;;;4969907;28;20070;-73
2023/03/08 02:17:43;;;;;;;9.07;7.63;;;-0.90;99.90;;;;;;4986582;28;20381;-73
2023/03/08 02:20:25;;;;;;;14.20;9.00;;;-0.90;99.90;;;;;;4970684;28;20412;-73
2023/03/08 02:22:52;;;;;;;15.18;9.05;;;-0.90;99.90;;;;;;4968972;28;20555;-74
2023/03/08 02:25:23;;;;;;;10.40;8.98;;;-0.90;99.90;;;;;;4968176;28;20390;-74
2023/03/08 02:27:51;;;;;;;14.50;10.60;;;-0.90;99.90;;;;;;4985420;28;20047;-73
2023/03/08 02:30:24;;;;;;;12.80;9.88;;;-0.90;99.90;;;;;;4961695;28;20697;-73
2023/03/08 02:32:49;;;;;;;16.08;10.23;;;-0.90;99.90;;;;;;4970160;28;20089;-74
2023/03/08 02:35:15;;;;;;;12.50;10.52;;;-1.00;99.90;;;;;;4985695;28;20078;-73
2023/03/08 02:37:41;;;;;;;16.17;11.05;;;-1.00;99.90;;;;;;4967032;28;20055;-75
2023/03/08 02:40:08;;;;;;;14.27;11.25;;;-1.00;99.90;;;;;;4969858;28;20079;-73
2023/03/08 02:42:34;;;;;;;12.00;10.77;;;-1.00;99.90;;;;;;4970573;28;20060;-72
2023/03/08 02:45:00;;;;;;;14.40;10.75;;;-1.00;99.90;;;;;;4982631;28;20126;-72
2023/03/08 02:47:26;;;;;;;12.38;11.07;;;-1.00;99.90;;;;;;4970342;28;20047;-72
2023/03/08 02:49:52;;;;;;;13.98;11.45;;;-1.00;99.90;;;;;;4970128;28;20113;-73
2023/03/08 02:52:17;;;;;;;15.20;12.43;;;-1.00;99.90;;;;;;4972719;28;20050;-73
2023/03/08 02:54:43;;;;;;;13.65;11.80;;;-1.00;99.90;;;;;;4968726;28;20055;-72
2023/03/08 02:57:09;;;;;;;12.52;11.23;;;-1.00;99.90;;;;;;4969927;28;20054;-73
2023/03/08 02:59:34;;;;;;;15.43;13.23;;;-1.00;99.90;;;;;;4983967;28;20052;-73
2023/03/08 03:02:10;;;;;;;15.23;12.02;;;-1.00;99.90;;;;;;4970379;28;20504;-73
2023/03/08 03:04:36;;;;;;;14.25;11.48;;;-1.00;99.90;;;;;;4969447;28;20158;-73
2023/03/08 03:07:02;;;;;;;15.15;12.85;;;-1.10;99.90;;;;;;4970469;28;20145;-72
2023/03/08 03:09:28;;;;;;;14.90;12.75;;;-1.10;99.90;;;;;;4970399;28;20042;-73
2023/03/08 03:11:54;;;;;;;14.23;12.77;;;-1.10;99.90;;;;;;4968785;28;20121;-73
2023/03/08 03:14:20;;;;;;;17.63;15.35;;;-1.10;99.90;;;;;;4970433;28;20054;-73
2023/03/08 03:16:45;;;;;;;15.80;14.23;;;-1.10;99.90;;;;;;4984841;28;20123;-72
2023/03/08 03:19:11;;;;;;;21.33;14.20;;;-1.10;99.90;;;;;;4971091;28;20109;-71
2023/03/08 03:21:38;;;;;;;18.65;14.05;;;-1.10;99.90;;;;;;4968623;28;20043;-72
2023/03/08 03:24:04;;;;;;;19.17;15.25;;;-1.10;99.90;;;;;;4979686;28;20082;-73
2023/03/08 03:26:30;;;;;;;16.63;14.73;;;-1.20;99.90;;;;;;4974167;28;20121;-74
2023/03/08 03:28:57;;;;;;;17.55;15.63;;;-1.10;99.90;;;;;;4971618;28;20133;-73
2023/03/08 03:31:24;;;;;;;22.02;15.98;;;-1.20;99.90;;;;;;4973354;28;20046;-74
2023/03/08 03:33:50;;;;;;;17.83;15.85;;;-1.10;99.90;;;;;;4966265;28;20077;-74
2023/03/08 03:36:19;;;;;;;22.65;18.00;;;-1.20;99.90;;;;;;4971920;28;20078;-74
2023/03/08 03:38:45;;;;;;;21.30;17.42;;;-1.10;99.90;;;;;;4991721;28;20052;-75
2023/03/08 03:41:17;;;;;;;24.02;18.45;;;-1.10;99.90;;;;;;4984191;28;20055;-74
2023/03/08 03:43:44;;;;;;;17.98;16.08;;;-1.10;99.90;;;;;;4966153;28;20050;-74
2023/03/08 03:46:15;;;;;;;19.98;17.90;;;-1.10;99.90;;;;;;4972797;28;20061;-74
2023/03/08 03:48:41;;;;;;;19.02;17.08;;;-1.10;99.90;;;;;;4975586;28;20046;-73
2023/03/08 03:51:13;;;;;;;22.83;18.80;;;-1.10;99.90;;;;;;4972640;28;20121;-74
2023/03/08 03:53:40;;;;;;;20.45;17.55;;;-1.20;99.90;;;;;;4971828;28;20395;-74
2023/03/08 03:56:18;;;;;;;19.13;17.05;;;-1.20;99.90;;;;;;4971975;28;20092;-74
2023/03/08 03:58:45;;;;;;;23.95;17.70;;;-1.20;99.90;;;;;;4970423;28;20133;-74
2023/03/08 04:01:19;;;;;;;22.58;17.52;;;-1.20;99.90;;;;;;4972850;28;20104;-74
2023/03/08 04:03:46;;;;;;;24.75;20.58;;;-1.10;99.90;;;;;;4972553;28;20042;-74
2023/03/08 04:06:15;;;;;;;19.67;17.13;;;-1.20;99.90;;;;;;4987990;28;20113;-74
2023/03/08 04:08:41;;;;;;;26.05;19.60;;;-1.20;99.90;;;;;;4972295;28;20440;-74
2023/03/08 04:11:09;;;;;;;17.95;15.82;;;-1.20;99.90;;;;;;4972615;28;20586;-74
2023/03/08 04:13:35;;;;;;;21.08;17.73;;;-1.20;99.90;;;;;;4973109;28;20399;-74
2023/03/08 04:16:18;;;;;;;21.45;16.63;;;-1.20;99.90;;;;;;4970512;28;20042;-74
2023/03/08 04:18:44;;;;;;;25.50;19.00;;;-1.20;99.90;;;;;;4963994;28;20046;-74
2023/03/08 04:21:17;;;;;;;19.65;16.40;;;-1.20;99.90;;;;;;4973211;28;20046;-74
2023/03/08 04:23:43;;;;;;;21.02;16.55;;;-1.20;99.90;;;;;;4971925;28;20109;-74
2023/03/08 04:26:08;;;;;;;20.52;18.25;;;-1.20;99.90;;;;;;4971730;28;20070;-74
2023/03/08 04:28:34;;;;;;;19.48;17.48;;;-1.20;99.90;;;;;;4972059;28;20407;-74
2023/03/08 04:31:16;;;;;;;18.35;16.55;;;-1.30;99.90;;;;;;4969382;28;20500;-71
2023/03/08 04:33:42;;;;;;;27.33;18.20;;;-1.20;99.90;;;;;;4963026;28;20551;-72
2023/03/08 04:36:08;;;;;;;19.25;17.33;;;-1.30;99.90;;;;;;4972810;28;20065;-72
2023/03/08 04:38:35;;;;;;;20.75;17.35;;;-1.30;99.90;;;;;;4972370;28;20104;-73
2023/03/08 04:41:01;;;;;;;25.00;16.98;;;-1.30;99.90;;;;;;4973343;28;20389;-73
2023/03/08 04:43:27;;;;;;;21.77;19.33;;;-1.30;99.90;;;;;;4972171;28;20057;-73
2023/03/08 04:45:53;;;;;;;21.85;17.88;;;-1.30;99.90;;;;;;4977238;28;20104;-73
2023/03/08 04:48:21;;;;;;;25.02;17.92;;;-1.30;99.90;;;;;;4981462;28;20058;-73
2023/03/08 04:50:55;;;;;;;20.65;18.58;;;-1.30;99.90;;;;;;5000692;28;20428;-73
2023/03/08 04:53:21;;;;;;;21.88;18.42;;;-1.30;99.90;;;;;;4971745;28;20055;-73
2023/03/08 04:55:49;;;;;;;20.23;17.98;;;-1.30;99.90;;;;;;4971483;28;20089;-73
2023/03/08 04:58:14;;;;;;;25.85;20.85;;;-1.30;99.90;;;;;;4975925;28;20504;-73
2023/03/08 05:00:40;;;;;;;23.92;21.02;;;-1.30;99.90;;;;;;4983157;28;20054;-73
2023/03/08 05:03:06;;;;;;;23.60;20.98;;;-1.30;99.90;;;;;;4970639;28;20074;-73
2023/03/08 05:05:31;;;;;;;34.45;26.90;;;-1.30;99.90;;;;;;4971893;28;20462;-73
2023/03/08 05:08:04;;;;;;;26.92;21.58;;;-1.30;99.90;;;;;;4980552;28;20036;-73
2023/03/08 05:10:32;;;;;;;26.13;22.40;;;-1.30;99.90;;;;;;4983194;28;20133;-73
2023/03/08 05:12:58;;;;;;;;;;;-1.30;99.90;;;;;;4977382;28;20038;-73
2023/03/08 05:15:24;;;;;;;24.45;22.05;;;-1.30;99.90;;;;;;4967512;28;20302;-73
2023/03/08 05:17:50;;;;;;;24.65;22.10;;;-1.30;99.90;;;;;;4990030;28;20223;-73
2023/03/08 05:20:17;;;;;;;31.83;22.83;;;-1.30;99.90;;;;;;4975263;28;20133;-73
2023/03/08 05:22:43;;;;;;;23.80;20.65;;;-1.30;99.90;;;;;;4984145;28;20046;-73
2023/03/08 05:25:09;;;;;;;29.13;23.63;;;-1.30;99.90;;;;;;4980921;28;20058;-73
2023/03/08 05:27:35;;;;;;;25.90;22.70;;;-1.30;99.90;;;;;;4975317;28;20056;-72
2023/03/08 05:30:03;;;;;;;23.70;21.30;;;-1.30;99.90;;;;;;4972297;28;20054;-73
2023/03/08 05:32:28;;;;;;;23.35;21.00;;;-1.30;99.90;;;;;;4973986;28;20842;-72
2023/03/08 05:34:54;;;;;;;27.67;20.73;;;-1.40;99.90;;;;;;4978886;28;20052;-74
2023/03/08 05:37:20;;;;;;;25.85;23.10;;;-1.30;99.90;;;;;;4969593;28;20104;-73
2023/03/08 05:39:47;;;;;;;25.80;21.48;;;-1.30;99.90;;;;;;4970239;28;20125;-73
2023/03/08 05:42:13;;;;;;;23.98;21.52;;;-1.40;99.90;;;;;;4974907;28;20501;-73
2023/03/08 05:44:39;;;;;;;24.42;21.77;;;-1.40;99.90;;;;;;4957680;28;20043;-73
2023/03/08 05:47:04;;;;;;;23.55;20.88;;;-1.40;99.90;;;;;;4970032;28;20125;-73
2023/03/08 05:49:30;;;;;;;33.20;21.92;;;-1.40;99.90;;;;;;4985704;28;20049;-73
2023/03/08 05:51:56;;;;;;;23.50;20.73;;;-1.40;99.90;;;;;;4966994;28;20047;-73
2023/03/08 05:54:22;;;;;;;22.20;19.85;;;-1.40;99.90;;;;;;4970477;28;20137;-72
2023/03/08 05:56:47;;;;;;;27.70;22.75;;;-1.40;99.90;;;;;;4991373;28;20054;-73
2023/03/08 05:59:13;;;;;;;24.50;21.88;;;-1.40;99.90;;;;;;4971528;28;20850;-73
2023/03/08 06:01:39;;;;;;;23.17;20.58;;;-1.40;99.90;;;;;;4970934;28;20050;-73
2023/03/08 06:04:05;;;;;;;24.73;22.17;;;-1.40;99.90;;;;;;4987770;28;20049;-73
2023/03/08 06:06:30;;;;;;;24.17;21.60;;;-1.40;99.90;;;;;;4972766;28;20085;-73
2023/03/08 06:08:56;;;;;;;25.13;21.48;;;-1.40;99.90;;;;;;4982139;28;20419;-73
2023/03/08 06:11:22;;;;;;;24.75;21.45;;;-1.40;99.90;;;;;;4967393;28;20038;-73
2023/03/08 06:13:48;;;;;;;25.98;21.88;;;-1.50;99.90;;;;;;4965722;28;20042;-73
2023/03/08 06:16:14;;;;;;;24.98;22.20;;;-1.50;99.90;;;;;;4989677;28;20577;-73
2023/03/08 06:18:41;;;;;;;22.85;20.55;;;-1.50;99.90;;;;;;4981816;28;20503;-73
2023/03/08 06:21:17;;;;;;;24.80;21.05;;;-1.50;99.90;;;;;;4986146;28;20058;-73
2023/03/08 06:23:43;;;;;;;22.30;20.00;;;-1.50;99.90;;;;;;4972716;28;20504;-72
2023/03/08 06:26:10;;;;;;;24.50;21.73;;;-1.50;99.90;;;;;;4978110;28;20050;-73
2023/03/08 06:28:39;;;;;;;22.70;20.45;;;-1.50;99.90;;;;;;4976083;28;20809;-73
2023/03/08 06:31:05;;;;;;;23.08;20.50;;;-1.50;99.90;;;;;;4999404;28;20050;-73
2023/03/08 06:33:32;;;;;;;24.60;21.88;;;-1.50;99.90;;;;;;4986282;28;20050;-73
2023/03/08 06:36:01;;;;;;;24.25;21.77;;;-1.50;99.90;;;;;;4971776;28;20057;-73
2023/03/08 06:38:27;;;;;;;;;;;-1.50;99.90;;;;;;4973020;28;20046;-73
2023/03/08 06:40:53;;;;;;;24.50;22.02;;;-1.50;99.90;;;;;;4974952;28;19980;-73
2023/03/08 06:43:19;;;;;;;24.85;22.33;;;-1.50;99.90;;;;;;4974643;28;20053;-73
2023/03/08 06:45:45;;;;;;;25.33;21.77;;;-1.50;99.90;;;;;;4974463;28;20065;-73
2023/03/08 06:48:11;;;;;;;24.17;21.50;;;-1.40;99.90;;;;;;4974352;28;20138;-73
2023/03/08 06:50:37;;;;;;;27.60;20.85;;;-1.30;99.90;;;;;;4971553;28;21537;-73
2023/03/08 06:53:03;;;;;;;23.13;20.85;;;-1.20;99.90;;;;;;4977765;28;20046;-73
2023/03/08 06:55:28;;;;;;;24.50;21.90;;;-1.10;99.90;;;;;;4976176;28;20513;-73
2023/03/08 06:57:54;;;;;;;34.10;26.25;;;-0.90;99.90;;;;;;4972384;28;20061;-73
2023/03/08 07:00:21;;;;;;;33.22;28.73;;;-0.50;99.90;;;;;;4972176;28;20050;-73
2023/03/08 07:02:47;;;;;;;25.92;23.05;;;0.40;99.90;;;;;;4972719;28;20046;-73
2023/03/08 07:05:17;;;;;;;22.60;20.45;;;1.70;99.90;;;;;;4975243;28;20526;-73
2023/03/08 07:07:42;;;;;;;28.10;24.27;;;2.40;99.90;;;;;;4969781;28;20507;-73
2023/03/08 07:10:15;;;;;;;21.90;19.50;;;3.00;99.90;;;;;;4989867;28;20081;-73
2023/03/08 07:12:45;;;;;;;20.13;18.13;;;3.40;99.90;;;;;;4969743;28;20047;-73
2023/03/08 07:15:17;;;;;;;18.60;16.77;;;3.20;99.90;;;;;;4972716;28;20128;-73
2023/03/08 07:17:47;;;;;;;18.70;16.77;;;2.60;99.90;;;;;;4979766;28;20042;-73
2023/03/08 07:20:15;;;;;;;20.88;17.80;;;2.10;99.90;;;;;;4972635;28;20407;-73
2023/03/08 07:22:42;;;;;;;21.83;17.03;;;1.80;99.90;;;;;;4955406;28;20062;-73
2023/03/08 07:25:09;;;;;;;17.40;15.27;;;1.60;99.90;;;;;;4978969;28;20100;-73
2023/03/08 07:27:35;;;;;;;18.77;16.80;;;1.60;99.90;;;;;;4980869;28;20058;-72
2023/03/08 07:30:01;;;;;;;18.10;16.23;;;1.40;99.90;;;;;;4971882;28;20053;-73
2023/03/08 07:32:27;;;;;;;21.08;19.05;;;1.30;99.90;;;;;;4974301;28;20412;-73
2023/03/08 07:34:54;;;;;;;19.05;17.15;;;1.20;99.90;;;;;;4971174;28;20056;-73
2023/03/08 07:37:20;;;;;;;17.48;15.77;;;1.10;99.90;;;;;;4975228;28;20045;-73
2023/03/08 07:39:46;;;;;;;18.90;17.13;;;1.00;99.90;;;;;;4995518;28;20096;-73
2023/03/08 07:42:11;;;;;;;18.48;16.65;;;0.90;99.90;;;;;;4975210;28;20042;-73
2023/03/08 07:44:41;;;;;;;28.15;17.95;;;0.80;99.90;;;;;;4987278;28;20042;-73
2023/03/08 07:47:08;;;;;;;18.58;16.65;;;0.70;99.90;;;;;;4971010;28;20038;-73
2023/03/08 07:49:34;;;;;;;17.98;16.23;;;0.70;99.90;;;;;;4972750;28;20420;-73
2023/03/08 07:52:00;;;;;;;22.42;17.27;;;0.60;99.90;;;;;;4980831;28;20050;-73
2023/03/08 07:54:25;;;;;;;20.08;16.88;;;0.60;99.90;;;;;;4975304;28;20546;-73
2023/03/08 07:56:52;;;;;;;19.95;17.85;;;0.50;99.90;;;;;;4975730;28;20054;-73
2023/03/08 07:59:18;;;;;;;18.80;17.10;;;0.50;99.90;;;;;;4988620;28;20054;-73
2023/03/08 08:01:43;;;;;;;23.90;19.77;;;0.50;99.90;;;;;;4962947;28;20879;-73
2023/03/08 08:04:11;;;;;;;20.10;18.20;;;0.50;99.90;;;;;;4968210;28;20055;-74
2023/03/08 08:06:37;;;;;;;21.52;19.35;;;0.60;99.90;;;;;;4966928;28;20202;-73
2023/03/08 08:09:04;;;;;;;21.35;19.25;;;0.60;99.90;;;;;;4965580;28;20093;-73
2023/03/08 08:11:30;;;;;;;22.73;20.55;;;0.60;99.90;;;;;;4974735;28;20451;-73
2023/03/08 08:13:56;;;;;;;22.30;19.92;;;0.70;99.90;;;;;;4973968;28;20111;-73
2023/03/08 08:16:22;;;;;;;24.92;20.63;;;0.70;99.90;;;;;;4955742;28;20120;-73
2023/03/08 08:18:50;;;;;;;20.85;18.80;;;0.80;99.90;;;;;;4977732;28;20484;-73
2023/03/08 08:21:16;;;;;;;24.92;22.33;;;0.90;99.90;;;;;;4983039;28;20439;-73
2023/03/08 08:23:42;;;;;;;22.55;20.30;;;0.90;99.90;;;;;;4969310;28;20085;-74
2023/03/08 08:26:10;;;;;;;21.77;19.67;;;0.90;99.90;;;;;;4970757;28;20063;-73
2023/03/08 08:28:38;;;;;;;26.23;18.45;;;1.00;99.90;;;;;;4969405;28;20046;-73
2023/03/08 08:31:10;;;;;;;24.73;21.50;;;1.10;99.90;;;;;;4974372;28;20054;-73
2023/03/08 08:33:36;;;;;;;28.88;23.67;;;1.10;99.90;;;;;;4971223;28;20050;-72
2023/03/08 08:36:08;;;;;;;24.27;21.63;;;1.10;99.90;;;;;;4967697;28;20050;-72
2023/03/08 08:38:34;;;;;;;23.13;20.85;;;1.20;99.90;;;;;;4972244;28;20403;-72
2023/03/08 08:41:02;;;;;;;56.85;34.25;;;1.20;99.90;;;;;;4966958;28;20050;-72
2023/03/08 08:43:29;;;;;;;27.83;24.63;;;1.20;99.90;;;;;;4970621;28;20054;-73
2023/03/08 08:45:57;;;;;;;42.92;29.33;;;1.10;99.90;;;;;;4958104;28;20061;-72
2023/03/08 08:48:24;;;;;;;37.40;30.10;;;1.10;99.90;;;;;;4967295;28;20112;-72
2023/03/08 08:50:51;;;;;;;42.50;31.77;;;1.10;99.90;;;;;;4971811;28;20076;-72
2023/03/08 08:53:17;;;;;;;34.50;29.77;;;1.20;99.90;;;;;;4967742;28;20109;-72
2023/03/08 08:55:44;;;;;;;39.30;30.30;;;1.20;99.90;;;;;;4971504;28;20042;-73
2023/03/08 08:58:10;;;;;;;34.50;27.55;;;1.20;99.90;;;;;;4968338;28;20779;-73
2023/03/08 09:00:37;;;;;;;28.33;25.40;;;1.30;99.90;;;;;;4981995;28;20070;-73
2023/03/08 09:03:03;;;;;;;31.90;27.95;;;1.30;99.90;;;;;;4971130;28;20058;-73
2023/03/08 09:05:31;;;;;;;34.47;30.45;;;1.30;99.90;;;;;;4970240;28;20089;-72
2023/03/08 09:07:58;;;;;;;31.80;27.75;;;1.40;99.90;;;;;;4971086;28;20046;-73
2023/03/08 09:10:27;;;;;;;29.67;26.58;;;1.30;99.90;;;;;;4971439;28;20080;-73
2023/03/08 09:12:53;;;;;;;;;;;1.30;99.90;;;;;;4986827;28;20104;-73
2023/03/08 09:15:20;;;;;;;33.13;29.77;;;1.20;99.90;;;;;;4969651;28;19921;-73
2023/03/08 09:17:46;;;;;;;34.30;30.42;;;1.10;99.90;;;;;;4970063;28;20049;-73
2023/03/08 09:20:20;;;;;;;38.65;33.95;;;1.20;99.90;;;;;;4985452;28;20051;-72
2023/03/08 09:22:46;;;;;;;47.53;37.83;;;1.20;99.90;;;;;;4970861;28;20159;-73
2023/03/08 09:25:13;;;;;;;52.85;41.03;;;1.20;99.90;;;;;;4968347;28;20565;-73
2023/03/08 09:27:40;;;;;;;53.47;41.92;;;1.20;99.90;;;;;;4968756;28;20043;-73
2023/03/08 09:30:09;;;;;;;54.63;41.67;;;1.20;99.90;;;;;;4966996;28;20051;-73
2023/03/08 09:32:36;;;;;;;59.47;44.80;;;1.10;99.90;;;;;;4969824;28;20266;-73
2023/03/08 09:35:04;;;;;;;64.22;42.00;;;1.10;99.90;;;;;;4969571;28;20082;-73
2023/03/08 09:37:29;;;;;;;59.58;43.58;;;1.10;99.90;;;;;;4971184;28;20406;-73
2023/03/08 09:39:55;;;;;;;56.95;42.50;;;1.10;99.90;;;;;;4980046;28;20133;-73
2023/03/08 09:42:26;;;;;;;51.30;38.72;;;1.10;99.90;;;;;;4971114;28;20046;-73
2023/03/08 09:45:00;;;;;;;56.95;41.92;;;1.00;99.90;;;;;;4970639;28;20050;-73
2023/03/08 09:47:38;;;;;;;57.47;41.67;;;1.00;99.90;;;;;;4964630;28;20046;-73
2023/03/08 09:50:29;;;;;;;60.75;43.55;;;0.90;99.90;;;;;;4948818;28;20043;-72
2023/03/08 09:53:18;;;;;;;59.60;43.30;;;0.90;99.90;;;;;;4962088;28;20066;-73
2023/03/08 09:55:54;;;;;;;63.65;44.10;;;0.80;99.90;;;;;;4975226;28;20051;-73
2023/03/08 09:58:25;;;;;;;66.90;41.67;;;0.80;99.90;;;;;;4974132;28;20054;-73
2023/03/08 10:00:52;;;;;;;67.57;42.90;;;0.70;99.90;;;;;;4990402;28;20046;-74
2023/03/08 10:03:51;;;;;;;75.65;44.03;;;0.80;99.90;;;;;;4972544;28;20562;-73
2023/03/08 10:07:00;;;;;;;54.22;39.20;;;0.80;99.90;;;;;;4970583;28;20061;-74
2023/03/08 10:09:46;;;;;;;51.10;37.95;;;0.80;99.90;;;;;;4915253;29;20095;-72
2023/03/08 10:12:17;;;;;;;54.38;36.28;;;0.90;99.90;;;;;;4910098;29;20596;-73
2023/03/08 10:14:53;;;;;;;56.97;36.47;;;0.90;99.90;;;;;;4966162;28;20169;-72
2023/03/08 10:17:32;;;;;;;57.13;38.65;;;1.00;99.90;;;;;;4957690;28;20559;-73
2023/03/08 10:20:07;;;;;;;53.28;36.17;;;1.00;99.90;;;;;;4967382;28;20043;-74
2023/03/08 10:22:37;;;;;;;57.58;38.47;;;1.00;99.90;;;;;;4990771;28;20050;-74
2023/03/08 10:25:29;;;;;;;56.05;37.00;;;0.90;99.90;;;;;;4989946;28;20051;-73
2023/03/08 10:27:57;;;;;;;57.70;36.50;;;0.90;99.90;;;;;;4957385;28;20042;-74
2023/03/08 10:30:45;;;;;;;49.00;34.53;;;0.90;99.90;;;;;;4972675;28;20062;-74
2023/03/08 10:33:13;;;;;;;45.90;33.53;;;1.00;99.90;;;;;;4973529;28;20077;-74
2023/03/08 10:36:17;;;;;;;47.33;32.88;;;1.00;99.90;;;;;;4977039;28;20049;-74
2023/03/08 10:38:54;;;;;;;44.33;33.88;;;1.00;99.90;;;;;;4972730;28;20105;-77
2023/03/08 10:41:20;;;;;;;48.90;34.45;;;0.90;99.90;;;;;;4978407;28;20049;-74
2023/03/08 10:43:49;;;;;;;65.75;38.17;;;0.90;99.90;;;;;;4977058;28;20050;-74
2023/03/08 10:46:19;;;;;;;64.75;40.30;;;0.80;99.90;;;;;;4969313;28;20149;-74
2023/03/08 10:48:46;;;;;;;57.10;36.30;;;0.80;99.90;;;;;;4982776;28;20046;-74
2023/03/08 10:51:26;;;;;;;52.40;35.80;;;0.70;99.90;;;;;;4975494;28;20082;-74
2023/03/08 10:54:01;;;;;;;63.58;37.80;;;0.80;99.90;;;;;;4986933;28;20093;-74
2023/03/08 10:56:39;;;;;;;60.95;39.15;;;0.70;99.90;;;;;;4972796;28;20411;-73
2023/03/08 10:59:15;;;;;;;46.92;32.45;;;0.80;99.90;;;;;;4977740;28;20042;-74
2023/03/08 11:01:59;;;;;;;49.30;33.80;;;0.80;99.90;;;;;;4971312;28;20060;-74
2023/03/08 11:04:28;;;;;;;57.60;35.70;;;0.90;99.90;;;;;;4986644;28;20087;-74
2023/03/08 11:06:55;;;;;;;50.05;33.00;;;1.00;99.90;;;;;;4969420;28;20101;-73
2023/03/08 11:09:30;;;;;;;50.80;35.38;;;1.00;99.90;;;;;;4987657;28;20126;-73
2023/03/08 11:11:57;;;;;;;55.42;36.67;;;1.10;99.90;;;;;;4988645;28;20052;-73
2023/03/08 11:14:24;;;;;;;58.30;38.35;;;1.20;99.90;;;;;;4973574;28;20046;-73
2023/03/08 11:17:11;;;;;;;49.33;34.38;;;1.20;99.90;;;;;;4968225;28;20046;-73
2023/03/08 11:19:59;;;;;;;48.78;32.53;;;1.20;99.90;;;;;;4986008;28;20090;-73
2023/03/08 11:22:39;;;;;;;43.72;31.17;;;1.20;99.90;;;;;;4975672;28;20491;-73
2023/03/08 11:25:20;;;;;;;41.75;28.42;;;1.20;99.90;;;;;;4978769;28;20700;-74
2023/03/08 11:28:13;;;;;;;41.25;28.77;;;1.30;99.90;;;;;;4963704;28;20054;-74
2023/03/08 11:31:13;;;;;;;50.80;30.35;;;1.40;99.90;;;;;;4978830;28;20078;-74
2023/03/08 11:33:56;;;;;;;46.22;31.38;;;1.40;99.90;;;;;;4974020;28;20050;-74
2023/03/08 11:36:56;;;;;;;42.13;28.38;;;1.50;99.90;;;;;;4991981;28;20088;-74
2023/03/08 11:39:31;;;;;;;40.88;28.35;;;1.50;99.90;;;;;;4977585;28;20058;-73
2023/03/08 11:42:15;;;;;;;41.25;28.35;;;1.50;99.90;;;;;;4979231;28;20050;-73
2023/03/08 11:44:53;;;;;;;35.55;27.65;;;1.50;99.90;;;;;;4969698;28;20053;-74
2023/03/08 11:47:38;;;;;;;40.42;27.90;;;1.60;99.90;;;;;;4982149;28;20078;-73
2023/03/08 11:50:24;;;;;;;39.83;29.52;;;1.60;99.90;;;;;;4980817;28;20128;-73
2023/03/08 11:53:12;;;;;;;43.08;28.88;;;1.70;99.90;;;;;;4967599;28;20050;-73
2023/03/08 11:55:43;;;;;;;39.35;25.98;;;1.70;99.90;;;;;;4978312;28;20054;-73
2023/03/08 11:58:36;;;;;;;35.05;26.80;;;1.60;99.90;;;;;;4977919;28;20050;-74
2023/03/08 12:01:27;;;;;;;57.40;32.80;;;1.70;99.90;;;;;;4973640;28;20058;-73
2023/03/08 12:03:57;;;;;;;44.13;29.98;;;1.70;99.90;;;;;;4967764;28;20050;-74
2023/03/08 12:06:38;;;;;;;40.72;27.92;;;1.80;99.90;;;;;;4972171;28;20105;-73
2023/03/08 12:09:26;;;;;;;42.17;26.98;;;1.90;99.90;;;;;;4973705;28;20062;-74
2023/03/08 12:12:00;;;;;;;44.65;29.65;;;2.00;99.90;;;;;;4980811;28;20054;-74
2023/03/08 12:14:33;;;;;;;40.45;25.98;;;2.00;99.90;;;;;;4979438;28;20070;-74
2023/03/08 12:17:44;;;;;;;37.13;24.60;;;2.10;99.90;;;;;;4967489;28;20046;-73
2023/03/08 12:20:14;;;;;;;35.40;24.10;;;2.20;99.90;;;;;;4966631;28;20074;-74
2023/03/08 12:22:56;;;;;;;27.27;21.17;;;2.20;99.90;;;;;;4972924;28;20072;-73
2023/03/08 12:25:36;;;;;;;36.55;22.58;;;2.20;99.90;;;;;;4968659;28;20065;-73
2023/03/08 12:28:05;;;;;;;39.10;22.13;;;2.30;99.90;;;;;;4988133;28;20658;-73
2023/03/08 12:31:13;;;;;;;28.83;21.42;;;2.30;99.90;;;;;;4973582;28;20105;-73
2023/03/08 12:33:39;;;;;;;31.08;22.63;;;2.40;99.90;;;;;;4955618;28;20804;-74
2023/03/08 12:36:06;;;;;;;32.35;22.70;;;2.40;99.90;;;;;;4987481;28;20141;-73
2023/03/08 12:38:35;;;;;;;28.92;21.13;;;2.40;99.90;;;;;;4971014;28;20112;-73
2023/03/08 12:41:01;;;;;;;34.60;24.35;;;2.50;99.90;;;;;;4970937;28;20050;-73
2023/03/08 12:43:30;;;;;;;33.03;21.70;;;2.60;99.90;;;;;;4971886;28;20125;-72
2023/03/08 12:45:56;;;;;;;28.73;21.65;;;2.60;99.90;;;;;;4966800;28;20050;-73
2023/03/08 12:48:23;;;;;;;33.38;23.98;;;2.70;99.90;;;;;;4974696;28;20069;-73